Watford, Canada
Current Conditions -  °F | °C
As of 6:00 AM on Thursday 23 Oct 2014 (Local Time) from CYZR Reporting Station
Few Clouds Few Clouds  
Wind Chill:   Ceiling: Unl
Heat Index:   Visibility: 9mi
Dew Point:   Wind: 8mph
Humidity: 93%   Direction: 320°NW
Pressure: 30.23"   Gusts: NA
Location:  42.95°N, 81.88°W
Report Text: CYZR 231000Z AUTO 32007KT 9SM FEW008 06/05 A3023 RMK SLP240
Loading
Personal Weather Stations






























Interactive Weather Map
Tropical Storm Tracking
New forecast layout! Learn more

10-Day Weather Forecast

Advertisements
Track Severe Weather on mobile